WetterOnline ( https://www.wetteronline.de )

Wetter aktuell Andernach

Aktuelles Wetter: Andernach (75m)

6-stündlich | Neueste Meldungen
Ortszeit Temperatur Wetter
Sa, 28.01. 13:00 2.9° C bedeckt
Sa, 28.01. 7:00 2.2° C bedeckt
Sa, 28.01. 1:00 3.4° C bewölkt
Fr, 27.01. 19:00 4.4° C bedeckt
Fr, 27.01. 13:00 4.8° C bedeckt
Fr, 27.01. 7:00 2.4° C bedeckt
Fr, 27.01. 1:00 2.3° C leichter Regen
Do, 26.01. 19:00 1.0° C Sprühregen
Ortszeit Temperatur Wetter
Sa, 28.01. 15:00 1.9° C bedeckt
Sa, 28.01. 14:50 1.9° C bedeckt
Sa, 28.01. 14:40 1.8° C bedeckt
Sa, 28.01. 14:30 1.9° C bedeckt
Sa, 28.01. 14:20 1.9° C bedeckt
Sa, 28.01. 14:10 1.9° C bedeckt
Sa, 28.01. 14:00 2.1° C bedeckt
Sa, 28.01. 13:30 2.4° C bedeckt
Sa, 28.01. 13:00 2.9° C bedeckt
Sa, 28.01. 12:30 2.5° C bewölkt
Sa, 28.01. 12:00 3.1° C bedeckt
Ortszeit Relative Feuchte Sichtweite
Sa, 28.01. 13:00 69% 45 km
Sa, 28.01. 7:00 80% 40 km
Sa, 28.01. 1:00 81% 50 km
Fr, 27.01. 19:00 80% 65 km
Fr, 27.01. 13:00 80% >70 km
Fr, 27.01. 7:00 92% 10 km
Fr, 27.01. 1:00 97% 4.1 km
Do, 26.01. 19:00 93% 10 km
Ortszeit Relative Feuchte Sichtweite
Sa, 28.01. 15:00 65% 55 km
Sa, 28.01. 14:50 65% -
Sa, 28.01. 14:40 66% -
Sa, 28.01. 14:30 67% 50 km
Sa, 28.01. 14:20 67% -
Sa, 28.01. 14:10 66% -
Sa, 28.01. 14:00 70% 35 km
Sa, 28.01. 13:30 68% 60 km
Sa, 28.01. 13:00 69% 45 km
Sa, 28.01. 12:30 74% 45 km
Sa, 28.01. 12:00 65% >70 km
Ortszeit Niederschlagsmenge Niederschlagsart
Sa, 28.01. 13:00 0.0 l/m2 in 6 Std. -
Sa, 28.01. 7:00 0.0 l/m2 in 12 Std. -
Sa, 28.01. 1:00 0.0 l/m2 in 6 Std. -
Fr, 27.01. 19:00 0.1 l/m2 in 12 Std. Regen
Fr, 27.01. 13:00 0.1 l/m2 in 6 Std. Regen
Fr, 27.01. 7:00 0.6 l/m2 in 12 Std. Regen
Fr, 27.01. 1:00 0.1 l/m2 in 6 Std. Schnee, Regen
Do, 26.01. 19:00 0.1 l/m2 in 12 Std. Schnee, Regen
Ortszeit Niederschlagsmenge Niederschlagsart
Sa, 28.01. 15:00 0.0 l/m2 in 1 Std. -
Sa, 28.01. 14:50 keine Meldung -
Sa, 28.01. 14:40 keine Meldung -
Sa, 28.01. 14:30 0.0 l/m2 in 30 Min -
Sa, 28.01. 14:20 keine Meldung -
Sa, 28.01. 14:10 keine Meldung -
Sa, 28.01. 14:00 0.0 l/m2 in 1 Std. -
Sa, 28.01. 13:30 0.0 l/m2 in 30 Min -
Sa, 28.01. 13:00 0.0 l/m2 in 1 Std. -
Sa, 28.01. 12:30 0.0 l/m2 in 30 Min -
Sa, 28.01. 12:00 0.0 l/m2 in 1 Std. -
Ortszeit Stärke Spitze Richtung
km/h Bft. km/h Grad Sektor
Sa, 28.01. 13:00 11 2 22 340° N
Sa, 28.01. 7:00 9 2 17 320° NW
Sa, 28.01. 1:00 7 2 18 330° NW
Fr, 27.01. 19:00 11 2 25 330° NW
Fr, 27.01. 13:00 11 2 25 360° N
Fr, 27.01. 7:00 14 3 25 310° NW
Fr, 27.01. 1:00 14 3 25 310° NW
Do, 26.01. 19:00 13 3 24 330° NW
Ortszeit Stärke Spitze Richtung
km/h Bft. km/h Grad Sektor
Sa, 28.01. 15:00 11 2 24 330° NW
Sa, 28.01. 14:50 11 2 - 330° NW
Sa, 28.01. 14:40 13 3 - 10° N
Sa, 28.01. 14:30 11 2 25 10° N
Sa, 28.01. 14:20 11 2 - 10° N
Sa, 28.01. 14:10 14 3 - 360° N
Sa, 28.01. 14:00 13 3 24 340° N
Sa, 28.01. 13:30 13 3 20 350° N
Sa, 28.01. 13:00 11 2 22 340° N
Sa, 28.01. 12:30 14 3 22 310° NW
Sa, 28.01. 12:00 11 2 18 360° N
Ortszeit Untergrenze Bedeckung Gattung
total tief tief mittel hoch
Sa, 28.01. 13:00 900 m 8/8 8/8 - - -
Sa, 28.01. 7:00 540 m 8/8 8/8 - - -
Sa, 28.01. 1:00 840 m 7/8 7/8 - - -
Fr, 27.01. 19:00 720 m 8/8 8/8 - - -
Fr, 27.01. 13:00 510 m 8/8 8/8 - - -
Fr, 27.01. 7:00 870 m 8/8 8/8 - - -
Fr, 27.01. 1:00 30 m 7/8 7/8 - - -
Do, 26.01. 19:00 210 m 8/8 8/8 - - -
Ortszeit Bedeckungsgrad in Achtel und Wolkenuntergrenze
Sa, 28.01. 15:00 8(780m)
Sa, 28.01. 14:50 8(780m)
Sa, 28.01. 14:40 8
Sa, 28.01. 14:30 8(720m)
Sa, 28.01. 14:20 8(720m)
Sa, 28.01. 14:10 8
Sa, 28.01. 14:00 7(780m) 8(900m)
Sa, 28.01. 13:30 8(900m) 8(5700m)
Sa, 28.01. 13:00 8(900m)
Sa, 28.01. 12:30 1(690m) 7(900m)
Sa, 28.01. 12:00 8(930m)
Ortszeit Luftdruck NN (hPa) Tendenz (hPa in 3 Std.)
Sa, 28.01. 13:00 1030 + 0,2
Sa, 28.01. 7:00 1029 + 1,1
Sa, 28.01. 1:00 1027 + 0,3
Fr, 27.01. 19:00 1026 + 1,3
Fr, 27.01. 13:00 1025 + 0,3
Fr, 27.01. 7:00 1023 + 0,9
Fr, 27.01. 1:00 1022 - 0,9
Do, 26.01. 19:00 1023 + 0,2
Ortszeit Luftdruck NN (hPa) Tendenz (hPa in 3 Std.)
Sa, 28.01. 15:00 1030 - 0,2
Sa, 28.01. 14:50 1030 keine Meldung
Sa, 28.01. 14:40 1030 keine Meldung
Sa, 28.01. 14:30 1030 - 0,1
Sa, 28.01. 14:20 1030 keine Meldung
Sa, 28.01. 14:10 1030 keine Meldung
Sa, 28.01. 14:00 1030 0,0
Sa, 28.01. 13:30 1030 + 0,1
Sa, 28.01. 13:00 1030 + 0,2
Sa, 28.01. 12:30 1030 + 0,8
Sa, 28.01. 12:00 1030 + 1,0
Ortszeit Schneehöhe (cm)
Sa, 28.01. 13:00 0
Sa, 28.01. 7:00 0
Sa, 28.01. 1:00 0
Fr, 27.01. 19:00 0
Fr, 27.01. 13:00 0
Fr, 27.01. 7:00 0
Fr, 27.01. 1:00 0
Do, 26.01. 19:00 0
Ortszeit Schneehöhe (cm)
Sa, 28.01. 15:00 0
Sa, 28.01. 14:50 0
Sa, 28.01. 14:40 0
Sa, 28.01. 14:30 0
Sa, 28.01. 14:20 0
Sa, 28.01. 14:10 0
Sa, 28.01. 14:00 0
Sa, 28.01. 13:30 0
Sa, 28.01. 13:00 0
Sa, 28.01. 12:30 0
Sa, 28.01. 12:00 0
Link zu dieser Seite / Seite empfehlen

Das Wetter in ...